sensor_id;sensor_type;location;lat;lon;timestamp;temperature;humidity
18229;DHT22;9239;50.932;3.142;2023-04-01T00:01:41;9.90;99.90
18229;DHT22;9239;50.932;3.142;2023-04-01T00:04:08;9.90;99.90
18229;DHT22;9239;50.932;3.142;2023-04-01T00:06:35;9.90;99.90
18229;DHT22;9239;50.932;3.142;2023-04-01T00:09:02;9.90;99.90
18229;DHT22;9239;50.932;3.142;2023-04-01T00:11:30;9.90;99.90
18229;DHT22;9239;50.932;3.142;2023-04-01T00:13:57;9.90;99.90
18229;DHT22;9239;50.932;3.142;2023-04-01T00:16:24;9.90;99.90
18229;DHT22;9239;50.932;3.142;2023-04-01T00:18:51;9.90;99.90
18229;DHT22;9239;50.932;3.142;2023-04-01T00:21:19;9.90;99.90
18229;DHT22;9239;50.932;3.142;2023-04-01T00:23:47;9.80;99.90
18229;DHT22;9239;50.932;3.142;2023-04-01T00:26:14;9.80;99.90
18229;DHT22;9239;50.932;3.142;2023-04-01T00:28:46;9.90;99.90
18229;DHT22;9239;50.932;3.142;2023-04-01T00:31:13;9.90;99.90
18229;DHT22;9239;50.932;3.142;2023-04-01T00:33:41;9.90;99.90
18229;DHT22;9239;50.932;3.142;2023-04-01T00:36:09;9.80;99.90
18229;DHT22;9239;50.932;3.142;2023-04-01T00:38:36;9.90;99.90
18229;DHT22;9239;50.932;3.142;2023-04-01T00:41:04;9.80;99.90
18229;DHT22;9239;50.932;3.142;2023-04-01T00:43:32;9.80;99.90
18229;DHT22;9239;50.932;3.142;2023-04-01T00:46:00;9.80;99.90
18229;DHT22;9239;50.932;3.142;2023-04-01T00:48:30;9.80;99.90
18229;DHT22;9239;50.932;3.142;2023-04-01T00:51:00;9.80;99.90
18229;DHT22;9239;50.932;3.142;2023-04-01T00:53:30;9.80;99.90
18229;DHT22;9239;50.932;3.142;2023-04-01T00:56:01;9.80;99.90
18229;DHT22;9239;50.932;3.142;2023-04-01T00:58:33;9.80;99.90
18229;DHT22;9239;50.932;3.142;2023-04-01T01:01:03;9.90;99.90
18229;DHT22;9239;50.932;3.142;2023-04-01T01:03:30;9.90;99.90
18229;DHT22;9239;50.932;3.142;2023-04-01T01:06:11;9.90;99.90
18229;DHT22;9239;50.932;3.142;2023-04-01T01:09:13;9.80;99.90
18229;DHT22;9239;50.932;3.142;2023-04-01T01:11:48;9.80;99.90
18229;DHT22;9239;50.932;3.142;2023-04-01T01:14:27;9.80;99.90
18229;DHT22;9239;50.932;3.142;2023-04-01T01:17:06;9.80;99.90
18229;DHT22;9239;50.932;3.142;2023-04-01T01:19:55;9.80;99.90
18229;DHT22;9239;50.932;3.142;2023-04-01T01:22:39;9.80;99.90
18229;DHT22;9239;50.932;3.142;2023-04-01T01:25:18;9.80;99.90
18229;DHT22;9239;50.932;3.142;2023-04-01T01:27:54;9.80;99.90
18229;DHT22;9239;50.932;3.142;2023-04-01T01:30:38;9.80;99.90
18229;DHT22;9239;50.932;3.142;2023-04-01T01:35:59;9.80;99.90
18229;DHT22;9239;50.932;3.142;2023-04-01T01:38:31;9.70;99.90
18229;DHT22;9239;50.932;3.142;2023-04-01T01:41:01;9.70;99.90
18229;DHT22;9239;50.932;3.142;2023-04-01T01:43:32;9.70;99.90
18229;DHT22;9239;50.932;3.142;2023-04-01T01:46:03;9.70;99.90
18229;DHT22;9239;50.932;3.142;2023-04-01T01:48:34;9.70;99.90
18229;DHT22;9239;50.932;3.142;2023-04-01T01:51:03;9.70;99.90
18229;DHT22;9239;50.932;3.142;2023-04-01T01:53:31;9.80;99.90
18229;DHT22;9239;50.932;3.142;2023-04-01T01:55:58;9.80;99.90
18229;DHT22;9239;50.932;3.142;2023-04-01T01:58:28;9.70;99.90
18229;DHT22;9239;50.932;3.142;2023-04-01T02:00:59;9.80;99.90
18229;DHT22;9239;50.932;3.142;2023-04-01T02:03:29;9.80;99.90
18229;DHT22;9239;50.932;3.142;2023-04-01T02:06:00;9.80;99.90
18229;DHT22;9239;50.932;3.142;2023-04-01T02:08:32;9.80;99.90
18229;DHT22;9239;50.932;3.142;2023-04-01T02:11:04;9.80;99.90
18229;DHT22;9239;50.932;3.142;2023-04-01T02:13:35;9.80;99.90
18229;DHT22;9239;50.932;3.142;2023-04-01T02:16:11;9.80;99.90
18229;DHT22;9239;50.932;3.142;2023-04-01T02:18:39;9.80;99.90
18229;DHT22;9239;50.932;3.142;2023-04-01T02:21:09;9.80;99.90
18229;DHT22;9239;50.932;3.142;2023-04-01T02:23:38;9.80;99.90
18229;DHT22;9239;50.932;3.142;2023-04-01T02:26:06;9.70;99.90
18229;DHT22;9239;50.932;3.142;2023-04-01T02:28:37;9.70;99.90
18229;DHT22;9239;50.932;3.142;2023-04-01T02:31:05;9.80;99.90
18229;DHT22;9239;50.932;3.142;2023-04-01T02:33:33;9.80;99.90
18229;DHT22;9239;50.932;3.142;2023-04-01T02:36:00;9.80;99.90
18229;DHT22;9239;50.932;3.142;2023-04-01T02:38:27;9.80;99.90
18229;DHT22;9239;50.932;3.142;2023-04-01T02:40:59;9.80;99.90
18229;DHT22;9239;50.932;3.142;2023-04-01T02:43:27;9.80;99.90
18229;DHT22;9239;50.932;3.142;2023-04-01T02:45:54;9.80;99.90
18229;DHT22;9239;50.932;3.142;2023-04-01T02:48:21;9.70;99.90
18229;DHT22;9239;50.932;3.142;2023-04-01T02:50:48;9.70;99.90
18229;DHT22;9239;50.932;3.142;2023-04-01T02:53:15;9.70;99.90
18229;DHT22;9239;50.932;3.142;2023-04-01T02:55:42;9.70;99.90
18229;DHT22;9239;50.932;3.142;2023-04-01T02:58:11;9.70;99.90
18229;DHT22;9239;50.932;3.142;2023-04-01T03:00:38;9.70;99.90
18229;DHT22;9239;50.932;3.142;2023-04-01T03:03:05;9.70;99.90
18229;DHT22;9239;50.932;3.142;2023-04-01T03:05:32;9.70;99.90
18229;DHT22;9239;50.932;3.142;2023-04-01T03:07:59;9.70;99.90
18229;DHT22;9239;50.932;3.142;2023-04-01T03:10:26;9.70;99.90
18229;DHT22;9239;50.932;3.142;2023-04-01T03:12:53;9.70;99.90
18229;DHT22;9239;50.932;3.142;2023-04-01T03:15:22;9.70;99.90
18229;DHT22;9239;50.932;3.142;2023-04-01T03:17:48;9.70;99.90
18229;DHT22;9239;50.932;3.142;2023-04-01T03:20:17;9.70;99.90
18229;DHT22;9239;50.932;3.142;2023-04-01T03:22:44;9.60;99.90
18229;DHT22;9239;50.932;3.142;2023-04-01T03:25:12;9.60;99.90
18229;DHT22;9239;50.932;3.142;2023-04-01T03:27:39;9.60;99.90
18229;DHT22;9239;50.932;3.142;2023-04-01T03:30:07;9.60;99.90
18229;DHT22;9239;50.932;3.142;2023-04-01T03:32:36;9.60;99.90
18229;DHT22;9239;50.932;3.142;2023-04-01T03:35:03;9.60;99.90
18229;DHT22;9239;50.932;3.142;2023-04-01T03:37:31;9.50;99.90
18229;DHT22;9239;50.932;3.142;2023-04-01T03:39:57;9.50;99.90
18229;DHT22;9239;50.932;3.142;2023-04-01T03:42:24;9.50;99.90
18229;DHT22;9239;50.932;3.142;2023-04-01T03:44:51;9.50;99.90
18229;DHT22;9239;50.932;3.142;2023-04-01T03:47:18;9.50;99.90
18229;DHT22;9239;50.932;3.142;2023-04-01T03:49:46;9.50;99.90
18229;DHT22;9239;50.932;3.142;2023-04-01T03:52:13;9.50;99.90
18229;DHT22;9239;50.932;3.142;2023-04-01T03:54:40;9.50;99.90
18229;DHT22;9239;50.932;3.142;2023-04-01T03:57:06;9.50;99.90
18229;DHT22;9239;50.932;3.142;2023-04-01T03:59:34;9.50;99.90
18229;DHT22;9239;50.932;3.142;2023-04-01T04:02:01;9.50;99.90
18229;DHT22;9239;50.932;3.142;2023-04-01T04:04:28;9.50;99.90
18229;DHT22;9239;50.932;3.142;2023-04-01T04:06:57;9.50;99.90
18229;DHT22;9239;50.932;3.142;2023-04-01T04:09:24;9.50;99.90
18229;DHT22;9239;50.932;3.142;2023-04-01T04:11:51;9.50;99.90
18229;DHT22;9239;50.932;3.142;2023-04-01T04:14:17;9.50;99.90
18229;DHT22;9239;50.932;3.142;2023-04-01T04:16:44;9.50;99.90
18229;DHT22;9239;50.932;3.142;2023-04-01T04:19:11;9.50;99.90
18229;DHT22;9239;50.932;3.142;2023-04-01T04:21:39;9.50;99.90
18229;DHT22;9239;50.932;3.142;2023-04-01T04:24:08;9.50;99.90
18229;DHT22;9239;50.932;3.142;2023-04-01T04:26:35;9.50;99.90
18229;DHT22;9239;50.932;3.142;2023-04-01T04:29:03;9.50;99.90
18229;DHT22;9239;50.932;3.142;2023-04-01T04:31:30;9.50;99.90
18229;DHT22;9239;50.932;3.142;2023-04-01T04:33:58;9.50;99.90
18229;DHT22;9239;50.932;3.142;2023-04-01T04:36:25;9.40;99.90
18229;DHT22;9239;50.932;3.142;2023-04-01T04:38:52;9.40;99.90
18229;DHT22;9239;50.932;3.142;2023-04-01T04:41:21;9.50;99.90
18229;DHT22;9239;50.932;3.142;2023-04-01T04:43:52;9.50;99.90
18229;DHT22;9239;50.932;3.142;2023-04-01T04:46:20;9.40;99.90
18229;DHT22;9239;50.932;3.142;2023-04-01T04:48:47;9.40;99.90
18229;DHT22;9239;50.932;3.142;2023-04-01T04:51:14;9.40;99.90
18229;DHT22;9239;50.932;3.142;2023-04-01T04:53:42;9.40;99.90
18229;DHT22;9239;50.932;3.142;2023-04-01T04:56:09;9.40;99.90
18229;DHT22;9239;50.932;3.142;2023-04-01T04:58:38;9.40;99.90
18229;DHT22;9239;50.932;3.142;2023-04-01T05:01:09;9.40;99.90
18229;DHT22;9239;50.932;3.142;2023-04-01T05:03:37;9.40;99.90
18229;DHT22;9239;50.932;3.142;2023-04-01T05:06:04;9.50;99.90
18229;DHT22;9239;50.932;3.142;2023-04-01T05:08:32;9.40;99.90
18229;DHT22;9239;50.932;3.142;2023-04-01T05:11:00;9.40;99.90
18229;DHT22;9239;50.932;3.142;2023-04-01T05:13:27;9.50;99.90
18229;DHT22;9239;50.932;3.142;2023-04-01T05:15:56;9.50;99.90
18229;DHT22;9239;50.932;3.142;2023-04-01T05:18:22;9.40;99.90
18229;DHT22;9239;50.932;3.142;2023-04-01T05:20:51;9.40;99.90
18229;DHT22;9239;50.932;3.142;2023-04-01T05:23:18;9.40;99.90
18229;DHT22;9239;50.932;3.142;2023-04-01T05:25:47;9.40;99.90
18229;DHT22;9239;50.932;3.142;2023-04-01T05:28:14;9.40;99.90
18229;DHT22;9239;50.932;3.142;2023-04-01T05:30:41;9.40;99.90
18229;DHT22;9239;50.932;3.142;2023-04-01T05:33:11;9.40;99.90
18229;DHT22;9239;50.932;3.142;2023-04-01T05:35:39;9.40;99.90
18229;DHT22;9239;50.932;3.142;2023-04-01T05:38:05;9.40;99.90
18229;DHT22;9239;50.932;3.142;2023-04-01T05:40:33;9.50;99.90
18229;DHT22;9239;50.932;3.142;2023-04-01T05:42:59;9.50;99.90
18229;DHT22;9239;50.932;3.142;2023-04-01T05:45:27;9.50;99.90
18229;DHT22;9239;50.932;3.142;2023-04-01T05:47:54;9.50;99.90
18229;DHT22;9239;50.932;3.142;2023-04-01T05:50:22;9.40;99.90
18229;DHT22;9239;50.932;3.142;2023-04-01T05:52:49;9.40;99.90
18229;DHT22;9239;50.932;3.142;2023-04-01T05:55:16;9.40;99.90
18229;DHT22;9239;50.932;3.142;2023-04-01T05:57:44;9.40;99.90
18229;DHT22;9239;50.932;3.142;2023-04-01T06:00:12;9.40;99.90
18229;DHT22;9239;50.932;3.142;2023-04-01T06:02:40;9.30;99.90
18229;DHT22;9239;50.932;3.142;2023-04-01T06:05:14;9.40;99.90
18229;DHT22;9239;50.932;3.142;2023-04-01T06:07:43;9.40;99.90
18229;DHT22;9239;50.932;3.142;2023-04-01T06:10:13;9.30;99.90
18229;DHT22;9239;50.932;3.142;2023-04-01T06:12:50;9.30;99.90
18229;DHT22;9239;50.932;3.142;2023-04-01T06:15:25;9.30;99.90
18229;DHT22;9239;50.932;3.142;2023-04-01T06:21:00;9.30;99.90
18229;DHT22;9239;50.932;3.142;2023-04-01T06:23:47;9.30;99.90
18229;DHT22;9239;50.932;3.142;2023-04-01T06:26:26;9.30;99.90
18229;DHT22;9239;50.932;3.142;2023-04-01T06:29:23;9.40;99.90
18229;DHT22;9239;50.932;3.142;2023-04-01T06:32:35;9.30;99.90
18229;DHT22;9239;50.932;3.142;2023-04-01T06:35:23;9.30;99.90
18229;DHT22;9239;50.932;3.142;2023-04-01T06:38:11;9.30;99.90
18229;DHT22;9239;50.932;3.142;2023-04-01T06:41:06;9.20;99.90
18229;DHT22;9239;50.932;3.142;2023-04-01T06:43:48;9.20;99.90
18229;DHT22;9239;50.932;3.142;2023-04-01T06:46:22;9.20;99.90
18229;DHT22;9239;50.932;3.142;2023-04-01T06:49:07;9.30;99.90
18229;DHT22;9239;50.932;3.142;2023-04-01T06:51:46;9.20;99.90
18229;DHT22;9239;50.932;3.142;2023-04-01T06:54:18;9.20;99.90
18229;DHT22;9239;50.932;3.142;2023-04-01T06:56:53;9.20;99.90
18229;DHT22;9239;50.932;3.142;2023-04-01T06:59:24;9.20;99.90
18229;DHT22;9239;50.932;3.142;2023-04-01T07:01:55;9.20;99.90
18229;DHT22;9239;50.932;3.142;2023-04-01T07:04:25;9.20;99.90
18229;DHT22;9239;50.932;3.142;2023-04-01T07:06:57;9.20;99.90
18229;DHT22;9239;50.932;3.142;2023-04-01T07:09:28;9.20;99.90
18229;DHT22;9239;50.932;3.142;2023-04-01T07:12:01;9.20;99.90
18229;DHT22;9239;50.932;3.142;2023-04-01T07:14:32;9.20;99.90
18229;DHT22;9239;50.932;3.142;2023-04-01T07:17:03;9.20;99.90
18229;DHT22;9239;50.932;3.142;2023-04-01T07:19:34;9.20;99.90
18229;DHT22;9239;50.932;3.142;2023-04-01T07:22:05;9.20;99.90
18229;DHT22;9239;50.932;3.142;2023-04-01T07:24:34;9.20;99.90
18229;DHT22;9239;50.932;3.142;2023-04-01T07:27:05;9.20;99.90
18229;DHT22;9239;50.932;3.142;2023-04-01T07:29:34;9.30;99.90
18229;DHT22;9239;50.932;3.142;2023-04-01T07:32:12;9.30;99.90
18229;DHT22;9239;50.932;3.142;2023-04-01T07:37:41;9.30;99.90
18229;DHT22;9239;50.932;3.142;2023-04-01T07:40:20;9.30;99.90
18229;DHT22;9239;50.932;3.142;2023-04-01T07:43:07;9.40;99.90
18229;DHT22;9239;50.932;3.142;2023-04-01T07:45:39;9.40;99.90
18229;DHT22;9239;50.932;3.142;2023-04-01T07:48:15;9.50;99.90
18229;DHT22;9239;50.932;3.142;2023-04-01T07:50:49;9.50;99.90
18229;DHT22;9239;50.932;3.142;2023-04-01T07:53:23;9.50;99.90
18229;DHT22;9239;50.932;3.142;2023-04-01T07:55:56;9.50;99.90
18229;DHT22;9239;50.932;3.142;2023-04-01T07:58:35;9.50;99.90
18229;DHT22;9239;50.932;3.142;2023-04-01T08:01:12;9.50;99.90
18229;DHT22;9239;50.932;3.142;2023-04-01T08:03:54;9.40;99.90
18229;DHT22;9239;50.932;3.142;2023-04-01T08:06:28;9.40;99.90
18229;DHT22;9239;50.932;3.142;2023-04-01T08:09:07;9.40;99.90
18229;DHT22;9239;50.932;3.142;2023-04-01T08:11:46;9.40;99.90
18229;DHT22;9239;50.932;3.142;2023-04-01T08:14:23;9.40;99.90
18229;DHT22;9239;50.932;3.142;2023-04-01T08:16:59;9.40;99.90
18229;DHT22;9239;50.932;3.142;2023-04-01T08:19:36;9.40;99.90
18229;DHT22;9239;50.932;3.142;2023-04-01T08:22:11;9.40;99.90
18229;DHT22;9239;50.932;3.142;2023-04-01T08:24:42;9.30;99.90
18229;DHT22;9239;50.932;3.142;2023-04-01T08:27:14;9.40;99.90
18229;DHT22;9239;50.932;3.142;2023-04-01T08:29:48;9.40;99.90
18229;DHT22;9239;50.932;3.142;2023-04-01T08:32:18;9.40;99.90
18229;DHT22;9239;50.932;3.142;2023-04-01T08:34:54;9.40;99.90
18229;DHT22;9239;50.932;3.142;2023-04-01T08:37:25;9.30;99.90
18229;DHT22;9239;50.932;3.142;2023-04-01T08:39:58;9.30;99.90
18229;DHT22;9239;50.932;3.142;2023-04-01T08:42:49;9.30;99.90
18229;DHT22;9239;50.932;3.142;2023-04-01T08:45:38;9.30;99.90
18229;DHT22;9239;50.932;3.142;2023-04-01T08:48:28;9.30;99.90
18229;DHT22;9239;50.932;3.142;2023-04-01T08:51:24;9.40;99.90
18229;DHT22;9239;50.932;3.142;2023-04-01T08:54:13;9.50;99.90
18229;DHT22;9239;50.932;3.142;2023-04-01T08:56:50;9.50;99.90
18229;DHT22;9239;50.932;3.142;2023-04-01T09:02:25;9.50;99.90
18229;DHT22;9239;50.932;3.142;2023-04-01T09:08:36;9.70;99.90
18229;DHT22;9239;50.932;3.142;2023-04-01T09:11:22;9.70;99.90
18229;DHT22;9239;50.932;3.142;2023-04-01T09:14:08;9.70;99.90
18229;DHT22;9239;50.932;3.142;2023-04-01T09:20:00;9.70;99.90
18229;DHT22;9239;50.932;3.142;2023-04-01T09:22:37;9.70;99.90
18229;DHT22;9239;50.932;3.142;2023-04-01T09:25:38;9.70;99.90
18229;DHT22;9239;50.932;3.142;2023-04-01T09:28:12;9.80;99.90
18229;DHT22;9239;50.932;3.142;2023-04-01T09:31:04;9.90;99.90
18229;DHT22;9239;50.932;3.142;2023-04-01T09:34:01;9.90;99.90
18229;DHT22;9239;50.932;3.142;2023-04-01T09:36:44;10.00;99.90
18229;DHT22;9239;50.932;3.142;2023-04-01T09:42:32;10.00;99.90
18229;DHT22;9239;50.932;3.142;2023-04-01T09:45:09;9.80;99.90
18229;DHT22;9239;50.932;3.142;2023-04-01T09:47:54;9.70;99.90
18229;DHT22;9239;50.932;3.142;2023-04-01T09:50:42;9.60;99.90
18229;DHT22;9239;50.932;3.142;2023-04-01T09:53:20;9.50;99.90
18229;DHT22;9239;50.932;3.142;2023-04-01T09:59:40;9.60;99.90
18229;DHT22;9239;50.932;3.142;2023-04-01T10:08:44;9.70;99.90
18229;DHT22;9239;50.932;3.142;2023-04-01T10:17:40;9.90;99.90
18229;DHT22;9239;50.932;3.142;2023-04-01T10:20:31;9.90;99.90
18229;DHT22;9239;50.932;3.142;2023-04-01T10:23:21;10.00;99.90
18229;DHT22;9239;50.932;3.142;2023-04-01T10:26:18;10.00;99.90
18229;DHT22;9239;50.932;3.142;2023-04-01T10:29:02;9.90;99.90
18229;DHT22;9239;50.932;3.142;2023-04-01T10:32:00;9.80;99.90
18229;DHT22;9239;50.932;3.142;2023-04-01T10:34:54;9.80;99.90
18229;DHT22;9239;50.932;3.142;2023-04-01T10:41:11;10.00;99.90
18229;DHT22;9239;50.932;3.142;2023-04-01T10:50:10;10.20;99.90
18229;DHT22;9239;50.932;3.142;2023-04-01T10:53:03;10.20;99.90
18229;DHT22;9239;50.932;3.142;2023-04-01T10:58:54;10.20;99.90
18229;DHT22;9239;50.932;3.142;2023-04-01T11:02:01;10.30;99.90
18229;DHT22;9239;50.932;3.142;2023-04-01T11:08:19;9.90;99.90
18229;DHT22;9239;50.932;3.142;2023-04-01T11:11:08;10.00;99.90
18229;DHT22;9239;50.932;3.142;2023-04-01T11:14:18;10.20;99.90
18229;DHT22;9239;50.932;3.142;2023-04-01T11:17:13;10.20;99.90
18229;DHT22;9239;50.932;3.142;2023-04-01T11:20:13;10.30;99.90
18229;DHT22;9239;50.932;3.142;2023-04-01T11:23:00;10.30;99.90
18229;DHT22;9239;50.932;3.142;2023-04-01T11:25:50;10.30;99.90
18229;DHT22;9239;50.932;3.142;2023-04-01T11:28:34;10.30;99.90
18229;DHT22;9239;50.932;3.142;2023-04-01T11:34:34;10.00;99.90
18229;DHT22;9239;50.932;3.142;2023-04-01T11:37:11;10.00;99.90
18229;DHT22;9239;50.932;3.142;2023-04-01T11:39:50;10.00;99.90
18229;DHT22;9239;50.932;3.142;2023-04-01T11:42:26;10.00;99.90
18229;DHT22;9239;50.932;3.142;2023-04-01T11:45:01;10.00;99.90
18229;DHT22;9239;50.932;3.142;2023-04-01T11:47:58;10.00;99.90
18229;DHT22;9239;50.932;3.142;2023-04-01T11:50:46;10.00;99.90
18229;DHT22;9239;50.932;3.142;2023-04-01T11:53:25;10.00;99.90
18229;DHT22;9239;50.932;3.142;2023-04-01T11:56:16;9.90;99.90
18229;DHT22;9239;50.932;3.142;2023-04-01T11:59:22;10.20;99.90
18229;DHT22;9239;50.932;3.142;2023-04-01T12:01:59;10.20;99.90
18229;DHT22;9239;50.932;3.142;2023-04-01T12:05:03;10.20;99.90
18229;DHT22;9239;50.932;3.142;2023-04-01T12:07:50;10.20;99.90
18229;DHT22;9239;50.932;3.142;2023-04-01T12:10:21;10.20;99.90
18229;DHT22;9239;50.932;3.142;2023-04-01T12:12:57;10.10;99.90
18229;DHT22;9239;50.932;3.142;2023-04-01T12:15:32;10.00;99.90
18229;DHT22;9239;50.932;3.142;2023-04-01T12:18:10;10.20;99.90
18229;DHT22;9239;50.932;3.142;2023-04-01T12:20:49;10.10;99.90
18229;DHT22;9239;50.932;3.142;2023-04-01T12:23:39;10.20;99.90
18229;DHT22;9239;50.932;3.142;2023-04-01T12:26:30;10.20;99.90
18229;DHT22;9239;50.932;3.142;2023-04-01T12:29:17;10.10;99.90
18229;DHT22;9239;50.932;3.142;2023-04-01T12:31:52;10.00;99.90
18229;DHT22;9239;50.932;3.142;2023-04-01T12:37:38;9.80;99.90
18229;DHT22;9239;50.932;3.142;2023-04-01T12:43:28;9.70;99.90
18229;DHT22;9239;50.932;3.142;2023-04-01T12:46:08;9.70;99.90
18229;DHT22;9239;50.932;3.142;2023-04-01T12:52:00;9.90;99.90
18229;DHT22;9239;50.932;3.142;2023-04-01T12:54:51;9.80;99.90
18229;DHT22;9239;50.932;3.142;2023-04-01T12:57:45;9.90;99.90
18229;DHT22;9239;50.932;3.142;2023-04-01T13:00:30;9.80;99.90
18229;DHT22;9239;50.932;3.142;2023-04-01T13:03:20;9.70;99.90
18229;DHT22;9239;50.932;3.142;2023-04-01T13:06:13;9.60;99.90
18229;DHT22;9239;50.932;3.142;2023-04-01T13:08:50;9.60;99.90
18229;DHT22;9239;50.932;3.142;2023-04-01T13:11:26;9.60;99.90
18229;DHT22;9239;50.932;3.142;2023-04-01T13:14:17;9.60;99.90
18229;DHT22;9239;50.932;3.142;2023-04-01T13:16:52;9.70;99.90
18229;DHT22;9239;50.932;3.142;2023-04-01T13:19:25;9.60;99.90
18229;DHT22;9239;50.932;3.142;2023-04-01T13:21:59;9.60;99.90
18229;DHT22;9239;50.932;3.142;2023-04-01T13:24:43;9.50;99.90
18229;DHT22;9239;50.932;3.142;2023-04-01T13:27:22;9.50;99.90
18229;DHT22;9239;50.932;3.142;2023-04-01T13:30:02;9.50;99.90
18229;DHT22;9239;50.932;3.142;2023-04-01T13:32:39;9.50;99.90
18229;DHT22;9239;50.932;3.142;2023-04-01T13:35:19;9.40;99.90
18229;DHT22;9239;50.932;3.142;2023-04-01T13:38:00;9.40;99.90
18229;DHT22;9239;50.932;3.142;2023-04-01T13:40:36;9.50;99.90
18229;DHT22;9239;50.932;3.142;2023-04-01T13:43:13;9.50;99.90
18229;DHT22;9239;50.932;3.142;2023-04-01T13:46:02;9.60;99.90
18229;DHT22;9239;50.932;3.142;2023-04-01T13:48:48;9.50;99.90
18229;DHT22;9239;50.932;3.142;2023-04-01T13:51:31;9.40;99.90
18229;DHT22;9239;50.932;3.142;2023-04-01T13:57:16;9.50;99.90
18229;DHT22;9239;50.932;3.142;2023-04-01T14:00:05;9.40;99.90
18229;DHT22;9239;50.932;3.142;2023-04-01T14:02:51;9.40;99.90
18229;DHT22;9239;50.932;3.142;2023-04-01T14:05:42;9.40;99.90
18229;DHT22;9239;50.932;3.142;2023-04-01T14:08:20;9.30;99.90
18229;DHT22;9239;50.932;3.142;2023-04-01T14:10:58;9.30;99.90
18229;DHT22;9239;50.932;3.142;2023-04-01T14:13:34;9.30;99.90
18229;DHT22;9239;50.932;3.142;2023-04-01T14:16:14;9.30;99.90
18229;DHT22;9239;50.932;3.142;2023-04-01T14:18:59;9.30;99.90
18229;DHT22;9239;50.932;3.142;2023-04-01T14:21:35;9.30;99.90
18229;DHT22;9239;50.932;3.142;2023-04-01T14:24:20;9.30;99.90
18229;DHT22;9239;50.932;3.142;2023-04-01T14:29:54;9.30;99.90
18229;DHT22;9239;50.932;3.142;2023-04-01T14:32:34;9.30;99.90
18229;DHT22;9239;50.932;3.142;2023-04-01T14:35:31;9.30;99.90
18229;DHT22;9239;50.932;3.142;2023-04-01T14:41:17;9.30;99.90
18229;DHT22;9239;50.932;3.142;2023-04-01T14:44:12;9.30;99.90
18229;DHT22;9239;50.932;3.142;2023-04-01T14:47:04;9.30;99.90
18229;DHT22;9239;50.932;3.142;2023-04-01T14:49:38;9.30;99.90
18229;DHT22;9239;50.932;3.142;2023-04-01T14:52:12;9.20;99.90
18229;DHT22;9239;50.932;3.142;2023-04-01T14:54:41;9.20;99.90
18229;DHT22;9239;50.932;3.142;2023-04-01T14:57:11;9.20;99.90
18229;DHT22;9239;50.932;3.142;2023-04-01T14:59:40;9.20;99.90
18229;DHT22;9239;50.932;3.142;2023-04-01T15:02:14;9.20;99.90
18229;DHT22;9239;50.932;3.142;2023-04-01T15:04:54;9.20;99.90
18229;DHT22;9239;50.932;3.142;2023-04-01T15:07:49;9.20;99.90
18229;DHT22;9239;50.932;3.142;2023-04-01T15:10:35;9.10;99.90
18229;DHT22;9239;50.932;3.142;2023-04-01T15:13:13;9.10;99.90
18229;DHT22;9239;50.932;3.142;2023-04-01T15:15:53;9.00;99.90
18229;DHT22;9239;50.932;3.142;2023-04-01T15:18:33;9.00;99.90
18229;DHT22;9239;50.932;3.142;2023-04-01T15:21:18;9.00;99.90
18229;DHT22;9239;50.932;3.142;2023-04-01T15:23:52;9.00;99.90
18229;DHT22;9239;50.932;3.142;2023-04-01T15:26:32;9.10;99.90
18229;DHT22;9239;50.932;3.142;2023-04-01T15:29:17;9.00;99.90
18229;DHT22;9239;50.932;3.142;2023-04-01T15:31:49;9.00;99.90
18229;DHT22;9239;50.932;3.142;2023-04-01T15:34:26;9.00;99.90
18229;DHT22;9239;50.932;3.142;2023-04-01T15:37:01;9.00;99.90
18229;DHT22;9239;50.932;3.142;2023-04-01T15:39:42;9.00;99.90
18229;DHT22;9239;50.932;3.142;2023-04-01T15:42:23;9.00;99.90
18229;DHT22;9239;50.932;3.142;2023-04-01T15:45:07;9.00;99.90
18229;DHT22;9239;50.932;3.142;2023-04-01T15:47:38;9.00;99.90
18229;DHT22;9239;50.932;3.142;2023-04-01T15:50:29;8.90;99.90
18229;DHT22;9239;50.932;3.142;2023-04-01T15:53:11;9.00;99.90
18229;DHT22;9239;50.932;3.142;2023-04-01T15:55:43;8.90;99.90
18229;DHT22;9239;50.932;3.142;2023-04-01T15:58:34;8.80;99.90
18229;DHT22;9239;50.932;3.142;2023-04-01T16:01:12;8.80;99.90
18229;DHT22;9239;50.932;3.142;2023-04-01T16:03:51;8.80;99.90
18229;DHT22;9239;50.932;3.142;2023-04-01T16:09:31;8.80;99.90
18229;DHT22;9239;50.932;3.142;2023-04-01T16:12:07;8.70;99.90
18229;DHT22;9239;50.932;3.142;2023-04-01T16:14:43;8.70;99.90
18229;DHT22;9239;50.932;3.142;2023-04-01T16:17:36;8.80;99.90
18229;DHT22;9239;50.932;3.142;2023-04-01T16:20:18;8.80;99.90
18229;DHT22;9239;50.932;3.142;2023-04-01T16:22:50;8.70;99.90
18229;DHT22;9239;50.932;3.142;2023-04-01T16:25:31;8.70;99.90
18229;DHT22;9239;50.932;3.142;2023-04-01T16:28:13;8.70;99.90
18229;DHT22;9239;50.932;3.142;2023-04-01T16:30:47;8.70;99.90
18229;DHT22;9239;50.932;3.142;2023-04-01T16:33:21;8.70;99.90
18229;DHT22;9239;50.932;3.142;2023-04-01T16:35:55;8.70;99.90
18229;DHT22;9239;50.932;3.142;2023-04-01T16:38:26;8.70;99.90
18229;DHT22;9239;50.932;3.142;2023-04-01T16:41:10;8.70;99.90
18229;DHT22;9239;50.932;3.142;2023-04-01T16:43:41;8.70;99.90
18229;DHT22;9239;50.932;3.142;2023-04-01T16:46:26;8.70;99.90
18229;DHT22;9239;50.932;3.142;2023-04-01T16:49:04;8.60;99.90
18229;DHT22;9239;50.932;3.142;2023-04-01T16:51:45;8.70;99.90
18229;DHT22;9239;50.932;3.142;2023-04-01T16:54:18;8.70;99.90
18229;DHT22;9239;50.932;3.142;2023-04-01T16:56:55;8.60;99.90
18229;DHT22;9239;50.932;3.142;2023-04-01T16:59:24;8.70;99.90
18229;DHT22;9239;50.932;3.142;2023-04-01T17:01:55;8.70;99.90
18229;DHT22;9239;50.932;3.142;2023-04-01T17:04:31;8.60;99.90
18229;DHT22;9239;50.932;3.142;2023-04-01T17:07:06;8.60;99.90
18229;DHT22;9239;50.932;3.142;2023-04-01T17:09:48;8.70;99.90
18229;DHT22;9239;50.932;3.142;2023-04-01T17:12:24;8.70;99.90
18229;DHT22;9239;50.932;3.142;2023-04-01T17:14:57;8.70;99.90
18229;DHT22;9239;50.932;3.142;2023-04-01T17:17:35;8.60;99.90
18229;DHT22;9239;50.932;3.142;2023-04-01T17:23:01;8.60;99.90
18229;DHT22;9239;50.932;3.142;2023-04-01T17:28:31;8.60;99.90
18229;DHT22;9239;50.932;3.142;2023-04-01T17:31:07;8.60;99.90
18229;DHT22;9239;50.932;3.142;2023-04-01T17:33:55;8.60;99.90
18229;DHT22;9239;50.932;3.142;2023-04-01T17:36:36;8.60;99.90
18229;DHT22;9239;50.932;3.142;2023-04-01T17:39:20;8.60;99.90
18229;DHT22;9239;50.932;3.142;2023-04-01T17:41:53;8.70;99.90
18229;DHT22;9239;50.932;3.142;2023-04-01T17:44:34;8.60;99.90
18229;DHT22;9239;50.932;3.142;2023-04-01T17:50:02;8.60;99.90
18229;DHT22;9239;50.932;3.142;2023-04-01T17:52:37;8.60;99.90
18229;DHT22;9239;50.932;3.142;2023-04-01T17:55:37;8.60;99.90
18229;DHT22;9239;50.932;3.142;2023-04-01T17:58:15;8.60;99.90
18229;DHT22;9239;50.932;3.142;2023-04-01T18:00:59;8.70;99.90
18229;DHT22;9239;50.932;3.142;2023-04-01T18:03:52;8.70;99.90
18229;DHT22;9239;50.932;3.142;2023-04-01T18:06:22;8.60;99.90
18229;DHT22;9239;50.932;3.142;2023-04-01T18:08:58;8.60;99.90
18229;DHT22;9239;50.932;3.142;2023-04-01T18:11:34;8.60;99.90
18229;DHT22;9239;50.932;3.142;2023-04-01T18:14:23;8.60;99.90
18229;DHT22;9239;50.932;3.142;2023-04-01T18:17:12;8.60;99.90
18229;DHT22;9239;50.932;3.142;2023-04-01T18:19:48;8.60;99.90
18229;DHT22;9239;50.932;3.142;2023-04-01T18:22:21;8.60;99.90
18229;DHT22;9239;50.932;3.142;2023-04-01T18:24:56;8.50;99.90
18229;DHT22;9239;50.932;3.142;2023-04-01T18:27:30;8.50;99.90